Pagrindinis puslapis
METAR-TAF:

METAR-TAF

Oro uostai :

Upsala, Švedija

platuma: 59-53N, ilguma: 017-36E, Aukštis: 21 m

Dabartinis oras

Ataskaita buvo paskelbta 35 minutes, ne 13:50 UTC
Vėjas 8 kt iš Vakarų/Šiaurės Vakarų
Temperatūra 6°C
Drėgmė 65%
Slėgis 999 hPa
Matomumas 10 km arba daugiau
nėra debesų žemiau 1500 m ir nėra kamuolinių lietaus debesų

METAR: ESCM 191350Z 29008KT CAVOK 06/M00 Q0999

Laikas: 15:25 (14:25 UTC)

Prognozė

Ataskaita buvo paskelbta 3 valandos ir 5 minutes, ne 11:20 UTC
Prognozė galioja nuo 19 metu 12 UTC su 19 metu 15 UTC
Vėjas 12 kt iš Vakarų
Matomumas 10 km arba daugiau
nėra debesų žemiau 1500 m ir nėra kamuolinių lietaus debesų

TAF: ESCM 191120Z 1912/1915 26012KT CAVOK RMK MIL

Orai ataskaitas ir orų prognozės (METAR, TAF).

turimą stotys yra geltonos ir raudonos taškus žemėlapyje.

Perkelti pele per norėdami pamatyti stoties vardą.

Tada spustelėkite, norėdami matyti oro stebėjimo ir prognozės.

Norėdami pakeisti žemėlapį: spustelėkite ant žalios mygtukų su juodo kryžiaus žemyn,; žalią mygtuką su brūkšneliu, jei norite nutolinti; arba žalių rodyklių gretimoms žemėlapius.


METAR-TAF: